sensor_id;sensor_type;location;lat;lon;timestamp;P1;durP1;ratioP1;P2;durP2;ratioP2
6306;SDS011;3186;54.062;9.962;2023-02-15T00:01:32;50.23;;;25.00;;
6306;SDS011;3186;54.062;9.962;2023-02-15T00:03:59;49.27;;;26.10;;
6306;SDS011;3186;54.062;9.962;2023-02-15T00:06:25;51.10;;;25.17;;
6306;SDS011;3186;54.062;9.962;2023-02-15T00:08:51;53.13;;;26.30;;
6306;SDS011;3186;54.062;9.962;2023-02-15T00:11:17;59.13;;;26.40;;
6306;SDS011;3186;54.062;9.962;2023-02-15T00:14:05;55.27;;;26.27;;
6306;SDS011;3186;54.062;9.962;2023-02-15T00:16:44;55.30;;;26.40;;
6306;SDS011;3186;54.062;9.962;2023-02-15T00:19:12;51.80;;;25.67;;
6306;SDS011;3186;54.062;9.962;2023-02-15T00:21:39;53.87;;;26.37;;
6306;SDS011;3186;54.062;9.962;2023-02-15T00:24:06;53.23;;;26.53;;
6306;SDS011;3186;54.062;9.962;2023-02-15T00:26:33;58.13;;;26.03;;
6306;SDS011;3186;54.062;9.962;2023-02-15T00:29:00;51.30;;;25.77;;
6306;SDS011;3186;54.062;9.962;2023-02-15T00:31:27;52.50;;;25.90;;
6306;SDS011;3186;54.062;9.962;2023-02-15T00:33:55;52.10;;;25.87;;
6306;SDS011;3186;54.062;9.962;2023-02-15T00:36:26;50.80;;;24.37;;
6306;SDS011;3186;54.062;9.962;2023-02-15T00:38:52;55.37;;;25.47;;
6306;SDS011;3186;54.062;9.962;2023-02-15T00:41:17;55.10;;;27.23;;
6306;SDS011;3186;54.062;9.962;2023-02-15T00:43:43;54.57;;;27.43;;
6306;SDS011;3186;54.062;9.962;2023-02-15T00:46:09;61.07;;;26.80;;
6306;SDS011;3186;54.062;9.962;2023-02-15T00:48:35;56.93;;;28.67;;
6306;SDS011;3186;54.062;9.962;2023-02-15T00:51:02;63.70;;;28.53;;
6306;SDS011;3186;54.062;9.962;2023-02-15T00:53:28;62.53;;;28.73;;
6306;SDS011;3186;54.062;9.962;2023-02-15T00:55:55;68.93;;;31.50;;
6306;SDS011;3186;54.062;9.962;2023-02-15T00:58:21;66.57;;;29.77;;
6306;SDS011;3186;54.062;9.962;2023-02-15T01:00:47;69.43;;;31.63;;
6306;SDS011;3186;54.062;9.962;2023-02-15T01:03:14;70.87;;;32.33;;
6306;SDS011;3186;54.062;9.962;2023-02-15T01:05:42;75.57;;;32.47;;
6306;SDS011;3186;54.062;9.962;2023-02-15T01:08:08;73.77;;;34.00;;
6306;SDS011;3186;54.062;9.962;2023-02-15T01:10:36;73.63;;;32.10;;
6306;SDS011;3186;54.062;9.962;2023-02-15T01:13:02;76.83;;;34.27;;
6306;SDS011;3186;54.062;9.962;2023-02-15T01:15:28;70.97;;;33.17;;
6306;SDS011;3186;54.062;9.962;2023-02-15T01:17:54;75.30;;;34.20;;
6306;SDS011;3186;54.062;9.962;2023-02-15T01:20:21;72.23;;;33.77;;
6306;SDS011;3186;54.062;9.962;2023-02-15T01:22:48;73.60;;;34.60;;
6306;SDS011;3186;54.062;9.962;2023-02-15T01:25:15;70.40;;;33.33;;
6306;SDS011;3186;54.062;9.962;2023-02-15T01:27:42;70.87;;;32.63;;
6306;SDS011;3186;54.062;9.962;2023-02-15T01:30:08;65.87;;;31.20;;
6306;SDS011;3186;54.062;9.962;2023-02-15T01:32:34;63.67;;;30.50;;
6306;SDS011;3186;54.062;9.962;2023-02-15T01:35:00;60.93;;;28.87;;
6306;SDS011;3186;54.062;9.962;2023-02-15T01:37:27;67.33;;;30.97;;
6306;SDS011;3186;54.062;9.962;2023-02-15T01:39:54;58.80;;;29.33;;
6306;SDS011;3186;54.062;9.962;2023-02-15T01:42:21;61.90;;;30.23;;
6306;SDS011;3186;54.062;9.962;2023-02-15T01:44:54;54.07;;;27.80;;
6306;SDS011;3186;54.062;9.962;2023-02-15T01:55:18;48.10;;;26.03;;
6306;SDS011;3186;54.062;9.962;2023-02-15T01:57:49;50.73;;;25.83;;
6306;SDS011;3186;54.062;9.962;2023-02-15T02:00:15;52.60;;;27.00;;
6306;SDS011;3186;54.062;9.962;2023-02-15T02:02:46;51.43;;;26.27;;
6306;SDS011;3186;54.062;9.962;2023-02-15T02:05:15;46.67;;;26.03;;
6306;SDS011;3186;54.062;9.962;2023-02-15T02:07:43;45.30;;;24.40;;
6306;SDS011;3186;54.062;9.962;2023-02-15T02:10:12;46.33;;;26.07;;
6306;SDS011;3186;54.062;9.962;2023-02-15T02:12:40;44.03;;;24.43;;
6306;SDS011;3186;54.062;9.962;2023-02-15T02:15:09;46.10;;;25.20;;
6306;SDS011;3186;54.062;9.962;2023-02-15T02:42:36;42.17;;;23.13;;
6306;SDS011;3186;54.062;9.962;2023-02-15T02:45:07;44.60;;;24.30;;
6306;SDS011;3186;54.062;9.962;2023-02-15T02:50:05;44.63;;;23.87;;
6306;SDS011;3186;54.062;9.962;2023-02-15T02:52:40;39.20;;;22.80;;
6306;SDS011;3186;54.062;9.962;2023-02-15T02:57:55;55.33;;;24.13;;
6306;SDS011;3186;54.062;9.962;2023-02-15T03:00:51;41.70;;;22.87;;
6306;SDS011;3186;54.062;9.962;2023-02-15T03:03:26;52.60;;;23.27;;
6306;SDS011;3186;54.062;9.962;2023-02-15T03:06:00;36.40;;;21.10;;
6306;SDS011;3186;54.062;9.962;2023-02-15T03:08:44;36.87;;;21.27;;
6306;SDS011;3186;54.062;9.962;2023-02-15T03:11:15;36.60;;;22.37;;
6306;SDS011;3186;54.062;9.962;2023-02-15T03:13:41;37.20;;;21.40;;
6306;SDS011;3186;54.062;9.962;2023-02-15T03:16:09;37.03;;;21.13;;
6306;SDS011;3186;54.062;9.962;2023-02-15T03:18:56;38.40;;;21.87;;
6306;SDS011;3186;54.062;9.962;2023-02-15T03:21:41;47.17;;;21.87;;
6306;SDS011;3186;54.062;9.962;2023-02-15T03:24:19;54.90;;;21.50;;
6306;SDS011;3186;54.062;9.962;2023-02-15T03:26:49;32.00;;;19.27;;
6306;SDS011;3186;54.062;9.962;2023-02-15T03:29:19;30.27;;;18.87;;
6306;SDS011;3186;54.062;9.962;2023-02-15T03:31:51;33.27;;;20.27;;
6306;SDS011;3186;54.062;9.962;2023-02-15T03:34:21;35.67;;;20.53;;
6306;SDS011;3186;54.062;9.962;2023-02-15T03:39:39;34.83;;;20.07;;
6306;SDS011;3186;54.062;9.962;2023-02-15T03:42:49;34.50;;;21.00;;
6306;SDS011;3186;54.062;9.962;2023-02-15T03:45:35;31.57;;;19.63;;
6306;SDS011;3186;54.062;9.962;2023-02-15T03:48:03;33.57;;;20.23;;
6306;SDS011;3186;54.062;9.962;2023-02-15T03:50:31;34.40;;;20.13;;
6306;SDS011;3186;54.062;9.962;2023-02-15T03:53:18;32.83;;;19.70;;
6306;SDS011;3186;54.062;9.962;2023-02-15T03:55:46;30.13;;;18.87;;
6306;SDS011;3186;54.062;9.962;2023-02-15T03:58:18;30.77;;;19.47;;
6306;SDS011;3186;54.062;9.962;2023-02-15T04:01:24;28.50;;;18.60;;
6306;SDS011;3186;54.062;9.962;2023-02-15T04:04:19;27.53;;;18.23;;
6306;SDS011;3186;54.062;9.962;2023-02-15T04:06:47;30.40;;;18.00;;
6306;SDS011;3186;54.062;9.962;2023-02-15T04:09:13;36.57;;;19.20;;
6306;SDS011;3186;54.062;9.962;2023-02-15T04:11:58;31.30;;;18.90;;
6306;SDS011;3186;54.062;9.962;2023-02-15T04:14:24;26.63;;;17.03;;
6306;SDS011;3186;54.062;9.962;2023-02-15T04:17:09;29.30;;;17.63;;
6306;SDS011;3186;54.062;9.962;2023-02-15T04:19:35;31.23;;;18.90;;
6306;SDS011;3186;54.062;9.962;2023-02-15T04:22:19;30.83;;;18.37;;
6306;SDS011;3186;54.062;9.962;2023-02-15T04:25:04;28.33;;;18.80;;
6306;SDS011;3186;54.062;9.962;2023-02-15T04:27:37;27.70;;;17.87;;
6306;SDS011;3186;54.062;9.962;2023-02-15T04:30:04;28.13;;;17.03;;
6306;SDS011;3186;54.062;9.962;2023-02-15T04:32:30;48.50;;;19.10;;
6306;SDS011;3186;54.062;9.962;2023-02-15T04:34:56;29.90;;;18.37;;
6306;SDS011;3186;54.062;9.962;2023-02-15T04:37:22;29.30;;;18.23;;
6306;SDS011;3186;54.062;9.962;2023-02-15T04:39:48;27.57;;;18.13;;
6306;SDS011;3186;54.062;9.962;2023-02-15T04:42:15;28.67;;;18.77;;
6306;SDS011;3186;54.062;9.962;2023-02-15T04:44:41;28.17;;;17.73;;
6306;SDS011;3186;54.062;9.962;2023-02-15T04:47:07;29.17;;;18.27;;
6306;SDS011;3186;54.062;9.962;2023-02-15T04:49:32;26.57;;;17.10;;
6306;SDS011;3186;54.062;9.962;2023-02-15T04:51:58;30.13;;;18.33;;
6306;SDS011;3186;54.062;9.962;2023-02-15T04:54:24;32.10;;;19.67;;
6306;SDS011;3186;54.062;9.962;2023-02-15T04:56:50;29.30;;;18.90;;
6306;SDS011;3186;54.062;9.962;2023-02-15T04:59:16;28.40;;;17.27;;
6306;SDS011;3186;54.062;9.962;2023-02-15T05:01:41;32.87;;;18.70;;
6306;SDS011;3186;54.062;9.962;2023-02-15T05:04:07;31.33;;;19.53;;
6306;SDS011;3186;54.062;9.962;2023-02-15T05:06:34;32.27;;;18.50;;
6306;SDS011;3186;54.062;9.962;2023-02-15T05:09:00;30.20;;;19.67;;
6306;SDS011;3186;54.062;9.962;2023-02-15T05:11:26;30.37;;;19.33;;
6306;SDS011;3186;54.062;9.962;2023-02-15T05:13:52;32.13;;;19.33;;
6306;SDS011;3186;54.062;9.962;2023-02-15T05:16:18;32.00;;;19.00;;
6306;SDS011;3186;54.062;9.962;2023-02-15T05:18:44;31.50;;;19.37;;
6306;SDS011;3186;54.062;9.962;2023-02-15T05:21:10;31.87;;;19.13;;
6306;SDS011;3186;54.062;9.962;2023-02-15T05:23:35;30.87;;;19.27;;
6306;SDS011;3186;54.062;9.962;2023-02-15T05:26:01;30.80;;;19.77;;
6306;SDS011;3186;54.062;9.962;2023-02-15T05:28:46;29.77;;;18.80;;
6306;SDS011;3186;54.062;9.962;2023-02-15T05:31:12;33.77;;;19.97;;
6306;SDS011;3186;54.062;9.962;2023-02-15T05:33:40;31.70;;;19.13;;
6306;SDS011;3186;54.062;9.962;2023-02-15T05:36:06;34.27;;;20.13;;
6306;SDS011;3186;54.062;9.962;2023-02-15T05:38:33;33.40;;;20.50;;
6306;SDS011;3186;54.062;9.962;2023-02-15T05:40:59;30.37;;;19.40;;
6306;SDS011;3186;54.062;9.962;2023-02-15T05:43:25;32.13;;;19.77;;
6306;SDS011;3186;54.062;9.962;2023-02-15T05:45:52;31.00;;;18.83;;
6306;SDS011;3186;54.062;9.962;2023-02-15T05:48:20;38.07;;;19.97;;
6306;SDS011;3186;54.062;9.962;2023-02-15T05:50:57;34.50;;;20.43;;
6306;SDS011;3186;54.062;9.962;2023-02-15T05:53:27;48.63;;;21.23;;
6306;SDS011;3186;54.062;9.962;2023-02-15T05:55:54;34.90;;;20.53;;
6306;SDS011;3186;54.062;9.962;2023-02-15T05:58:27;33.93;;;19.40;;
6306;SDS011;3186;54.062;9.962;2023-02-15T06:00:54;34.67;;;20.43;;
6306;SDS011;3186;54.062;9.962;2023-02-15T06:03:21;34.17;;;20.47;;
6306;SDS011;3186;54.062;9.962;2023-02-15T06:05:47;30.40;;;18.53;;
6306;SDS011;3186;54.062;9.962;2023-02-15T06:08:13;31.87;;;19.13;;
6306;SDS011;3186;54.062;9.962;2023-02-15T06:10:39;30.57;;;17.90;;
6306;SDS011;3186;54.062;9.962;2023-02-15T06:13:05;41.07;;;19.70;;
6306;SDS011;3186;54.062;9.962;2023-02-15T06:15:31;36.20;;;20.93;;
6306;SDS011;3186;54.062;9.962;2023-02-15T06:17:57;49.23;;;21.60;;
6306;SDS011;3186;54.062;9.962;2023-02-15T06:20:23;31.90;;;19.33;;
6306;SDS011;3186;54.062;9.962;2023-02-15T06:22:49;35.30;;;20.00;;
6306;SDS011;3186;54.062;9.962;2023-02-15T06:25:15;37.30;;;21.23;;
6306;SDS011;3186;54.062;9.962;2023-02-15T06:27:41;35.80;;;20.57;;
6306;SDS011;3186;54.062;9.962;2023-02-15T06:30:08;35.13;;;20.23;;
6306;SDS011;3186;54.062;9.962;2023-02-15T06:32:35;38.57;;;21.50;;
6306;SDS011;3186;54.062;9.962;2023-02-15T06:35:01;36.77;;;21.50;;
6306;SDS011;3186;54.062;9.962;2023-02-15T06:37:28;38.40;;;21.10;;
6306;SDS011;3186;54.062;9.962;2023-02-15T06:39:54;37.80;;;21.17;;
6306;SDS011;3186;54.062;9.962;2023-02-15T06:42:20;36.97;;;21.40;;
6306;SDS011;3186;54.062;9.962;2023-02-15T06:44:47;35.73;;;20.57;;
6306;SDS011;3186;54.062;9.962;2023-02-15T06:47:13;36.97;;;21.53;;
6306;SDS011;3186;54.062;9.962;2023-02-15T06:49:38;35.33;;;20.73;;
6306;SDS011;3186;54.062;9.962;2023-02-15T06:52:04;33.30;;;19.50;;
6306;SDS011;3186;54.062;9.962;2023-02-15T06:54:30;34.27;;;19.70;;
6306;SDS011;3186;54.062;9.962;2023-02-15T06:56:56;31.60;;;19.03;;
6306;SDS011;3186;54.062;9.962;2023-02-15T06:59:22;32.80;;;19.30;;
6306;SDS011;3186;54.062;9.962;2023-02-15T07:01:48;35.10;;;20.00;;
6306;SDS011;3186;54.062;9.962;2023-02-15T07:04:16;32.20;;;19.17;;
6306;SDS011;3186;54.062;9.962;2023-02-15T07:06:42;33.53;;;20.27;;
6306;SDS011;3186;54.062;9.962;2023-02-15T07:09:08;35.43;;;20.17;;
6306;SDS011;3186;54.062;9.962;2023-02-15T07:11:34;41.13;;;22.07;;
6306;SDS011;3186;54.062;9.962;2023-02-15T07:14:18;44.27;;;21.77;;
6306;SDS011;3186;54.062;9.962;2023-02-15T07:16:44;36.50;;;19.73;;
6306;SDS011;3186;54.062;9.962;2023-02-15T07:19:10;36.67;;;21.00;;
6306;SDS011;3186;54.062;9.962;2023-02-15T07:21:36;35.57;;;20.27;;
6306;SDS011;3186;54.062;9.962;2023-02-15T07:24:02;36.47;;;20.23;;
6306;SDS011;3186;54.062;9.962;2023-02-15T07:26:28;39.27;;;21.27;;
6306;SDS011;3186;54.062;9.962;2023-02-15T07:28:57;49.83;;;21.40;;
6306;SDS011;3186;54.062;9.962;2023-02-15T07:31:23;35.57;;;20.40;;
6306;SDS011;3186;54.062;9.962;2023-02-15T07:33:49;35.07;;;20.03;;
6306;SDS011;3186;54.062;9.962;2023-02-15T07:36:14;37.00;;;21.17;;
6306;SDS011;3186;54.062;9.962;2023-02-15T07:38:40;34.60;;;19.07;;
6306;SDS011;3186;54.062;9.962;2023-02-15T07:41:08;37.63;;;19.63;;
6306;SDS011;3186;54.062;9.962;2023-02-15T07:43:37;33.90;;;20.07;;
6306;SDS011;3186;54.062;9.962;2023-02-15T07:46:07;32.87;;;19.40;;
6306;SDS011;3186;54.062;9.962;2023-02-15T07:48:38;39.17;;;21.67;;
6306;SDS011;3186;54.062;9.962;2023-02-15T07:51:05;34.30;;;19.67;;
6306;SDS011;3186;54.062;9.962;2023-02-15T07:53:32;36.43;;;20.20;;
6306;SDS011;3186;54.062;9.962;2023-02-15T07:55:59;32.20;;;18.57;;
6306;SDS011;3186;54.062;9.962;2023-02-15T07:58:25;36.40;;;20.37;;
6306;SDS011;3186;54.062;9.962;2023-02-15T08:01:11;35.40;;;19.93;;
6306;SDS011;3186;54.062;9.962;2023-02-15T08:03:38;54.67;;;22.67;;
6306;SDS011;3186;54.062;9.962;2023-02-15T08:06:03;33.63;;;19.00;;
6306;SDS011;3186;54.062;9.962;2023-02-15T08:08:29;34.33;;;19.13;;
6306;SDS011;3186;54.062;9.962;2023-02-15T08:11:03;42.13;;;20.67;;
6306;SDS011;3186;54.062;9.962;2023-02-15T08:13:55;60.80;;;21.00;;
6306;SDS011;3186;54.062;9.962;2023-02-15T08:16:43;32.87;;;18.50;;
6306;SDS011;3186;54.062;9.962;2023-02-15T08:19:18;33.47;;;18.83;;
6306;SDS011;3186;54.062;9.962;2023-02-15T08:21:50;44.93;;;22.50;;
6306;SDS011;3186;54.062;9.962;2023-02-15T08:24:22;36.20;;;19.47;;
6306;SDS011;3186;54.062;9.962;2023-02-15T08:26:50;31.97;;;18.27;;
6306;SDS011;3186;54.062;9.962;2023-02-15T08:29:17;40.20;;;20.97;;
6306;SDS011;3186;54.062;9.962;2023-02-15T08:31:45;53.93;;;23.20;;
6306;SDS011;3186;54.062;9.962;2023-02-15T08:34:11;34.27;;;18.83;;
6306;SDS011;3186;54.062;9.962;2023-02-15T08:36:40;35.90;;;19.47;;
6306;SDS011;3186;54.062;9.962;2023-02-15T08:39:06;36.23;;;19.97;;
6306;SDS011;3186;54.062;9.962;2023-02-15T08:41:33;37.93;;;18.87;;
6306;SDS011;3186;54.062;9.962;2023-02-15T08:44:02;68.33;;;23.73;;
6306;SDS011;3186;54.062;9.962;2023-02-15T08:46:33;48.50;;;21.53;;
6306;SDS011;3186;54.062;9.962;2023-02-15T08:49:00;35.50;;;19.00;;
6306;SDS011;3186;54.062;9.962;2023-02-15T08:51:28;54.93;;;22.50;;
6306;SDS011;3186;54.062;9.962;2023-02-15T08:53:59;76.50;;;25.37;;
6306;SDS011;3186;54.062;9.962;2023-02-15T08:56:27;54.13;;;21.50;;
6306;SDS011;3186;54.062;9.962;2023-02-15T08:58:55;39.10;;;21.00;;
6306;SDS011;3186;54.062;9.962;2023-02-15T09:01:26;42.87;;;20.47;;
6306;SDS011;3186;54.062;9.962;2023-02-15T09:03:57;42.10;;;20.30;;
6306;SDS011;3186;54.062;9.962;2023-02-15T09:06:25;38.63;;;21.43;;
6306;SDS011;3186;54.062;9.962;2023-02-15T09:08:51;36.40;;;19.83;;
6306;SDS011;3186;54.062;9.962;2023-02-15T09:11:19;79.07;;;24.97;;
6306;SDS011;3186;54.062;9.962;2023-02-15T09:13:52;51.20;;;21.27;;
6306;SDS011;3186;54.062;9.962;2023-02-15T09:16:22;58.13;;;22.00;;
6306;SDS011;3186;54.062;9.962;2023-02-15T09:18:50;91.43;;;26.10;;
6306;SDS011;3186;54.062;9.962;2023-02-15T09:21:17;70.07;;;24.00;;
6306;SDS011;3186;54.062;9.962;2023-02-15T09:23:47;43.77;;;21.23;;
6306;SDS011;3186;54.062;9.962;2023-02-15T09:26:15;48.50;;;22.47;;
6306;SDS011;3186;54.062;9.962;2023-02-15T09:28:43;48.93;;;22.97;;
6306;SDS011;3186;54.062;9.962;2023-02-15T09:31:11;36.83;;;20.57;;
6306;SDS011;3186;54.062;9.962;2023-02-15T09:33:40;46.63;;;21.90;;
6306;SDS011;3186;54.062;9.962;2023-02-15T09:36:20;58.90;;;23.53;;
6306;SDS011;3186;54.062;9.962;2023-02-15T09:38:53;66.90;;;27.93;;
6306;SDS011;3186;54.062;9.962;2023-02-15T09:49:47;43.37;;;21.43;;
6306;SDS011;3186;54.062;9.962;2023-02-15T10:06:27;55.63;;;24.70;;
6306;SDS011;3186;54.062;9.962;2023-02-15T10:26:25;41.57;;;22.83;;
6306;SDS011;3186;54.062;9.962;2023-02-15T10:29:01;54.83;;;24.27;;
6306;SDS011;3186;54.062;9.962;2023-02-15T10:50:56;43.50;;;23.20;;
6306;SDS011;3186;54.062;9.962;2023-02-15T10:56:03;38.20;;;22.77;;
6306;SDS011;3186;54.062;9.962;2023-02-15T10:58:38;46.73;;;24.57;;
6306;SDS011;3186;54.062;9.962;2023-02-15T11:01:18;65.00;;;28.93;;
6306;SDS011;3186;54.062;9.962;2023-02-15T11:06:15;60.00;;;27.47;;
6306;SDS011;3186;54.062;9.962;2023-02-15T11:08:49;77.17;;;29.67;;
6306;SDS011;3186;54.062;9.962;2023-02-15T11:11:36;48.97;;;26.27;;
6306;SDS011;3186;54.062;9.962;2023-02-15T11:14:10;42.03;;;23.50;;
6306;SDS011;3186;54.062;9.962;2023-02-15T11:16:52;63.67;;;25.83;;
6306;SDS011;3186;54.062;9.962;2023-02-15T11:19:27;42.83;;;23.87;;
6306;SDS011;3186;54.062;9.962;2023-02-15T11:21:58;61.20;;;28.47;;
6306;SDS011;3186;54.062;9.962;2023-02-15T11:24:27;51.23;;;26.60;;
6306;SDS011;3186;54.062;9.962;2023-02-15T11:30:01;45.60;;;24.83;;
6306;SDS011;3186;54.062;9.962;2023-02-15T11:32:37;54.40;;;28.03;;
6306;SDS011;3186;54.062;9.962;2023-02-15T11:42:51;68.10;;;30.43;;
6306;SDS011;3186;54.062;9.962;2023-02-15T11:47:52;60.10;;;31.17;;
6306;SDS011;3186;54.062;9.962;2023-02-15T11:50:20;76.60;;;32.60;;
6306;SDS011;3186;54.062;9.962;2023-02-15T11:52:51;70.07;;;30.83;;
6306;SDS011;3186;54.062;9.962;2023-02-15T11:55:22;55.23;;;28.33;;
6306;SDS011;3186;54.062;9.962;2023-02-15T11:58:09;64.03;;;32.47;;
6306;SDS011;3186;54.062;9.962;2023-02-15T12:01:02;58.10;;;30.20;;
6306;SDS011;3186;54.062;9.962;2023-02-15T12:04:26;44.73;;;26.27;;
6306;SDS011;3186;54.062;9.962;2023-02-15T12:06:44;69.17;;;31.30;;
6306;SDS011;3186;54.062;9.962;2023-02-15T12:14:52;88.07;;;31.80;;
6306;SDS011;3186;54.062;9.962;2023-02-15T12:18:01;54.67;;;29.53;;
6306;SDS011;3186;54.062;9.962;2023-02-15T12:22:46;56.53;;;30.27;;
6306;SDS011;3186;54.062;9.962;2023-02-15T12:27:50;67.33;;;32.90;;
6306;SDS011;3186;54.062;9.962;2023-02-15T12:30:22;67.63;;;32.87;;
6306;SDS011;3186;54.062;9.962;2023-02-15T12:32:56;56.13;;;32.07;;
6306;SDS011;3186;54.062;9.962;2023-02-15T12:35:31;67.23;;;32.53;;
6306;SDS011;3186;54.062;9.962;2023-02-15T12:38:02;56.90;;;28.77;;
6306;SDS011;3186;54.062;9.962;2023-02-15T12:40:34;49.13;;;27.73;;
6306;SDS011;3186;54.062;9.962;2023-02-15T12:43:00;51.67;;;29.63;;
6306;SDS011;3186;54.062;9.962;2023-02-15T12:45:34;61.80;;;31.70;;
6306;SDS011;3186;54.062;9.962;2023-02-15T12:48:18;62.83;;;34.20;;
6306;SDS011;3186;54.062;9.962;2023-02-15T12:50:49;56.47;;;31.70;;
6306;SDS011;3186;54.062;9.962;2023-02-15T12:55:55;63.70;;;33.13;;
6306;SDS011;3186;54.062;9.962;2023-02-15T12:58:41;62.53;;;33.97;;
6306;SDS011;3186;54.062;9.962;2023-02-15T13:01:11;62.53;;;33.37;;
6306;SDS011;3186;54.062;9.962;2023-02-15T13:03:56;67.13;;;33.30;;
6306;SDS011;3186;54.062;9.962;2023-02-15T13:06:31;57.57;;;31.00;;
6306;SDS011;3186;54.062;9.962;2023-02-15T13:09:11;73.93;;;35.10;;
6306;SDS011;3186;54.062;9.962;2023-02-15T13:11:50;55.73;;;30.13;;
6306;SDS011;3186;54.062;9.962;2023-02-15T13:16:48;65.63;;;34.03;;
6306;SDS011;3186;54.062;9.962;2023-02-15T13:21:52;67.23;;;35.80;;
6306;SDS011;3186;54.062;9.962;2023-02-15T13:24:33;73.10;;;36.40;;
6306;SDS011;3186;54.062;9.962;2023-02-15T13:27:03;71.50;;;36.80;;
6306;SDS011;3186;54.062;9.962;2023-02-15T13:29:30;79.80;;;34.67;;
6306;SDS011;3186;54.062;9.962;2023-02-15T13:32:23;72.17;;;36.20;;
6306;SDS011;3186;54.062;9.962;2023-02-15T13:34:55;86.67;;;35.07;;
6306;SDS011;3186;54.062;9.962;2023-02-15T13:43:14;64.10;;;34.57;;
6306;SDS011;3186;54.062;9.962;2023-02-15T13:51:37;67.47;;;36.17;;
6306;SDS011;3186;54.062;9.962;2023-02-15T14:10:56;63.13;;;34.90;;
6306;SDS011;3186;54.062;9.962;2023-02-15T14:30:00;75.73;;;39.40;;
6306;SDS011;3186;54.062;9.962;2023-02-15T14:35:05;70.37;;;36.03;;
6306;SDS011;3186;54.062;9.962;2023-02-15T14:37:44;59.67;;;33.70;;
6306;SDS011;3186;54.062;9.962;2023-02-15T14:54:56;70.00;;;35.93;;
6306;SDS011;3186;54.062;9.962;2023-02-15T14:59:44;72.00;;;37.83;;
6306;SDS011;3186;54.062;9.962;2023-02-15T15:07:43;76.90;;;41.70;;
6306;SDS011;3186;54.062;9.962;2023-02-15T15:12:43;79.47;;;40.87;;
6306;SDS011;3186;54.062;9.962;2023-02-15T15:15:15;70.77;;;38.00;;
6306;SDS011;3186;54.062;9.962;2023-02-15T15:18:10;83.57;;;42.27;;
6306;SDS011;3186;54.062;9.962;2023-02-15T15:21:50;76.23;;;40.70;;
6306;SDS011;3186;54.062;9.962;2023-02-15T15:35:27;89.67;;;44.07;;
6306;SDS011;3186;54.062;9.962;2023-02-15T15:49:15;96.93;;;47.00;;
6306;SDS011;3186;54.062;9.962;2023-02-15T15:51:46;95.27;;;47.53;;
6306;SDS011;3186;54.062;9.962;2023-02-15T15:54:18;93.37;;;46.83;;
6306;SDS011;3186;54.062;9.962;2023-02-15T15:56:49;97.07;;;46.97;;
6306;SDS011;3186;54.062;9.962;2023-02-15T15:59:21;104.33;;;50.27;;
6306;SDS011;3186;54.062;9.962;2023-02-15T16:01:50;107.57;;;53.40;;
6306;SDS011;3186;54.062;9.962;2023-02-15T16:04:26;105.33;;;54.97;;
6306;SDS011;3186;54.062;9.962;2023-02-15T16:06:55;101.50;;;51.50;;
6306;SDS011;3186;54.062;9.962;2023-02-15T16:09:38;106.27;;;52.03;;
6306;SDS011;3186;54.062;9.962;2023-02-15T16:12:04;108.50;;;53.33;;
6306;SDS011;3186;54.062;9.962;2023-02-15T16:14:40;95.30;;;48.70;;
6306;SDS011;3186;54.062;9.962;2023-02-15T16:17:17;102.80;;;52.57;;
6306;SDS011;3186;54.062;9.962;2023-02-15T16:19:49;114.17;;;55.30;;
6306;SDS011;3186;54.062;9.962;2023-02-15T16:22:21;114.53;;;54.20;;
6306;SDS011;3186;54.062;9.962;2023-02-15T16:27:46;97.80;;;49.33;;
6306;SDS011;3186;54.062;9.962;2023-02-15T16:33:15;97.20;;;49.60;;
6306;SDS011;3186;54.062;9.962;2023-02-15T16:35:55;100.10;;;49.93;;
6306;SDS011;3186;54.062;9.962;2023-02-15T16:41:06;103.10;;;51.07;;
6306;SDS011;3186;54.062;9.962;2023-02-15T16:43:34;97.83;;;50.30;;
6306;SDS011;3186;54.062;9.962;2023-02-15T16:46:07;94.20;;;49.80;;
6306;SDS011;3186;54.062;9.962;2023-02-15T16:48:39;94.77;;;47.43;;
6306;SDS011;3186;54.062;9.962;2023-02-15T16:51:08;100.17;;;50.33;;
6306;SDS011;3186;54.062;9.962;2023-02-15T16:53:34;114.30;;;53.10;;
6306;SDS011;3186;54.062;9.962;2023-02-15T16:56:02;98.90;;;49.20;;
6306;SDS011;3186;54.062;9.962;2023-02-15T16:58:37;98.50;;;50.23;;
6306;SDS011;3186;54.062;9.962;2023-02-15T17:01:14;104.20;;;51.60;;
6306;SDS011;3186;54.062;9.962;2023-02-15T17:03:40;90.70;;;48.57;;
6306;SDS011;3186;54.062;9.962;2023-02-15T17:06:21;107.57;;;51.53;;
6306;SDS011;3186;54.062;9.962;2023-02-15T17:08:49;112.40;;;56.60;;
6306;SDS011;3186;54.062;9.962;2023-02-15T17:11:16;106.00;;;50.87;;
6306;SDS011;3186;54.062;9.962;2023-02-15T17:16:36;107.13;;;51.43;;
6306;SDS011;3186;54.062;9.962;2023-02-15T17:19:13;123.93;;;55.73;;
6306;SDS011;3186;54.062;9.962;2023-02-15T17:21:45;118.73;;;56.50;;
6306;SDS011;3186;54.062;9.962;2023-02-15T17:27:26;107.97;;;52.13;;
6306;SDS011;3186;54.062;9.962;2023-02-15T17:30:01;101.27;;;50.73;;
6306;SDS011;3186;54.062;9.962;2023-02-15T17:33:01;104.83;;;50.20;;
6306;SDS011;3186;54.062;9.962;2023-02-15T17:35:29;102.60;;;49.50;;
6306;SDS011;3186;54.062;9.962;2023-02-15T17:38:03;102.83;;;51.17;;
6306;SDS011;3186;54.062;9.962;2023-02-15T17:40:33;111.27;;;51.90;;
6306;SDS011;3186;54.062;9.962;2023-02-15T17:43:00;109.27;;;52.43;;
6306;SDS011;3186;54.062;9.962;2023-02-15T17:45:33;104.93;;;50.23;;
6306;SDS011;3186;54.062;9.962;2023-02-15T17:48:16;107.17;;;51.93;;
6306;SDS011;3186;54.062;9.962;2023-02-15T17:50:49;139.27;;;56.83;;
6306;SDS011;3186;54.062;9.962;2023-02-15T17:53:16;118.77;;;54.93;;
6306;SDS011;3186;54.062;9.962;2023-02-15T17:55:43;104.30;;;51.57;;
6306;SDS011;3186;54.062;9.962;2023-02-15T17:58:14;127.53;;;54.30;;
6306;SDS011;3186;54.062;9.962;2023-02-15T18:00:42;127.93;;;54.67;;
6306;SDS011;3186;54.062;9.962;2023-02-15T18:03:29;113.87;;;50.70;;
6306;SDS011;3186;54.062;9.962;2023-02-15T18:06:21;107.73;;;51.63;;
6306;SDS011;3186;54.062;9.962;2023-02-15T18:09:05;114.97;;;52.70;;
6306;SDS011;3186;54.062;9.962;2023-02-15T18:12:00;129.50;;;54.03;;
6306;SDS011;3186;54.062;9.962;2023-02-15T18:14:27;110.50;;;52.77;;
6306;SDS011;3186;54.062;9.962;2023-02-15T18:16:56;107.07;;;51.27;;
6306;SDS011;3186;54.062;9.962;2023-02-15T18:19:23;112.67;;;51.53;;
6306;SDS011;3186;54.062;9.962;2023-02-15T18:21:50;108.70;;;51.10;;
6306;SDS011;3186;54.062;9.962;2023-02-15T18:24:21;111.10;;;51.03;;
6306;SDS011;3186;54.062;9.962;2023-02-15T18:26:48;110.07;;;50.70;;
6306;SDS011;3186;54.062;9.962;2023-02-15T18:29:15;100.33;;;48.97;;
6306;SDS011;3186;54.062;9.962;2023-02-15T18:31:41;93.60;;;47.90;;
6306;SDS011;3186;54.062;9.962;2023-02-15T18:34:14;107.17;;;49.00;;
6306;SDS011;3186;54.062;9.962;2023-02-15T18:36:47;97.43;;;47.40;;
6306;SDS011;3186;54.062;9.962;2023-02-15T18:39:25;97.27;;;46.73;;
6306;SDS011;3186;54.062;9.962;2023-02-15T18:42:02;108.77;;;48.73;;
6306;SDS011;3186;54.062;9.962;2023-02-15T18:44:28;97.20;;;47.83;;
6306;SDS011;3186;54.062;9.962;2023-02-15T18:46:55;95.93;;;48.17;;
6306;SDS011;3186;54.062;9.962;2023-02-15T18:49:21;97.03;;;46.13;;
6306;SDS011;3186;54.062;9.962;2023-02-15T18:51:47;90.57;;;45.13;;
6306;SDS011;3186;54.062;9.962;2023-02-15T18:54:17;94.40;;;46.27;;
6306;SDS011;3186;54.062;9.962;2023-02-15T18:56:57;89.30;;;43.50;;
6306;SDS011;3186;54.062;9.962;2023-02-15T18:59:25;95.07;;;44.37;;
6306;SDS011;3186;54.062;9.962;2023-02-15T19:01:52;96.40;;;44.77;;
6306;SDS011;3186;54.062;9.962;2023-02-15T19:04:19;99.53;;;44.87;;
6306;SDS011;3186;54.062;9.962;2023-02-15T19:06:46;94.17;;;43.57;;
6306;SDS011;3186;54.062;9.962;2023-02-15T19:09:20;86.20;;;43.17;;
6306;SDS011;3186;54.062;9.962;2023-02-15T19:11:49;93.63;;;43.57;;
6306;SDS011;3186;54.062;9.962;2023-02-15T19:14:25;94.77;;;43.67;;
6306;SDS011;3186;54.062;9.962;2023-02-15T19:16:55;97.03;;;41.73;;